Time;durP1;ratioP1;P1;durP2;ratioP2;P2;SDS_P1;SDS_P2;PMS_P1;PMS_P2;Temp;Humidity;BMP_temperature;BMP_pressure;BME280_temperature;BME280_humidity;BME280_pressure;Samples;Min_cycle;Max_cycle;Signal;HPM_P1;HPM_P2
2023/04/12 00:00:19;;;;;;;1.53;0.57;;;9.50;99.90;;;;;;4986796;28;20222;-91
2023/04/12 00:02:52;;;;;;;1.93;0.70;;;9.60;99.90;;;;;;4989705;28;20214;-93
2023/04/12 00:05:26;;;;;;;0.93;0.60;;;9.60;99.90;;;;;;4984160;28;20238;-92
2023/04/12 00:08:01;;;;;;;1.57;1.20;;;9.70;99.90;;;;;;4983462;28;20347;-91
2023/04/12 00:10:33;;;;;;;2.60;1.17;;;9.80;99.90;;;;;;4976365;28;20230;-91
2023/04/12 00:13:04;;;;;;;2.00;1.33;;;9.90;99.90;;;;;;4989061;28;20210;-92
2023/04/12 00:15:36;;;;;;;4.13;1.23;;;10.00;99.90;;;;;;4978627;28;20239;-93
2023/04/12 00:18:07;;;;;;;2.07;1.00;;;10.40;99.90;;;;;;4985115;28;20660;-93
2023/04/12 00:20:40;;;;;;;1.60;0.90;;;10.60;99.90;;;;;;4983402;28;20297;-86
2023/04/12 00:23:14;;;;;;;3.80;1.00;;;10.60;99.90;;;;;;4995140;28;20276;-92
2023/04/12 00:25:45;;;;;;;2.03;0.80;;;10.70;99.90;;;;;;4995844;28;20214;-93
2023/04/12 00:28:17;;;;;;;3.20;0.80;;;10.60;99.90;;;;;;4994327;28;20667;-92
2023/04/12 00:30:49;;;;;;;1.80;0.60;;;10.40;99.90;;;;;;4981134;28;20235;-93
2023/04/12 00:33:21;;;;;;;2.43;0.80;;;10.30;99.90;;;;;;5007712;28;20225;-91
2023/04/12 00:35:53;;;;;;;2.83;0.80;;;10.10;99.90;;;;;;5016702;28;20194;-91
2023/04/12 00:38:27;;;;;;;2.77;0.87;;;10.00;99.90;;;;;;5019392;28;20278;-93
2023/04/12 00:40:59;;;;;;;2.03;0.70;;;9.90;99.90;;;;;;5010055;28;20221;-92
2023/04/12 00:43:31;;;;;;;2.90;0.70;;;9.90;99.90;;;;;;5016984;28;20237;-93
2023/04/12 00:46:04;;;;;;;1.30;0.90;;;9.90;99.90;;;;;;5006450;28;20206;-92
2023/04/12 00:48:36;;;;;;;1.97;0.70;;;9.90;99.90;;;;;;4994705;28;20203;-92
2023/04/12 00:51:09;;;;;;;1.27;0.80;;;9.80;99.90;;;;;;4989700;28;20230;-92
2023/04/12 00:53:42;;;;;;;1.17;0.70;;;9.80;99.90;;;;;;5018421;28;20190;-92
2023/04/12 00:56:14;;;;;;;1.67;0.90;;;9.60;99.90;;;;;;5004716;28;20206;-92
2023/04/12 00:58:45;;;;;;;1.53;1.00;;;9.60;99.90;;;;;;4990393;28;20237;-92
2023/04/12 01:01:20;;;;;;;3.50;0.80;;;9.60;99.90;;;;;;4998397;28;20214;-92
2023/04/12 01:03:53;;;;;;;1.80;0.53;;;9.60;99.90;;;;;;4998950;28;20214;-92
2023/04/12 01:06:32;;;;;;;2.10;0.90;;;9.60;99.90;;;;;;4999666;28;20229;-92
2023/04/12 01:09:15;;;;;;;2.97;0.80;;;9.70;99.90;;;;;;5013550;28;20197;-90
2023/04/12 01:11:58;;;;;;;2.20;0.60;;;9.60;99.90;;;;;;5032350;28;20213;-92
2023/04/12 01:14:37;;;;;;;1.77;0.60;;;9.60;99.90;;;;;;5019240;28;20216;-92
2023/04/12 01:17:13;;;;;;;1.87;0.70;;;9.50;99.90;;;;;;4994321;28;20195;-92
2023/04/12 01:19:56;;;;;;;0.73;0.53;;;9.60;99.90;;;;;;4988673;28;20214;-92
2023/04/12 01:23:03;;;;;;;1.60;0.70;;;9.70;99.90;;;;;;4996664;28;20210;-92
2023/04/12 01:25:51;;;;;;;0.80;0.70;;;9.60;99.90;;;;;;4919547;29;20260;-92
2023/04/12 01:28:33;;;;;;;1.67;0.90;;;9.50;99.90;;;;;;4985548;28;20213;-93
2023/04/12 01:31:08;;;;;;;1.60;0.90;;;9.40;99.90;;;;;;4995851;28;20581;-93
2023/04/12 01:33:41;;;;;;;1.93;0.70;;;9.40;99.90;;;;;;4989895;28;20202;-93
2023/04/12 01:36:16;;;;;;;0.90;0.60;;;9.30;99.90;;;;;;4999950;28;20218;-92
2023/04/12 01:38:49;;;;;;;1.60;0.80;;;9.20;99.90;;;;;;4989042;28;20236;-92
2023/04/12 01:41:20;;;;;;;1.83;0.77;;;9.20;99.90;;;;;;4996794;28;20210;-92
2023/04/12 01:43:54;;;;;;;0.87;0.77;;;9.00;99.90;;;;;;4983853;28;20726;-92
2023/04/12 01:46:26;;;;;;;1.17;0.57;;;8.90;99.90;;;;;;4987446;28;20210;-86
2023/04/12 01:48:59;;;;;;;3.93;1.07;;;8.80;99.90;;;;;;4996091;28;20603;-87
2023/04/12 01:51:41;;;;;;;1.73;0.90;;;8.70;99.90;;;;;;4985484;28;20235;-88
2023/04/12 01:54:15;;;;;;;1.07;0.70;;;8.70;99.90;;;;;;4982053;28;20214;-88
2023/04/12 01:56:51;;;;;;;0.93;0.70;;;8.80;99.90;;;;;;4999762;28;20205;-88
2023/04/12 01:59:31;;;;;;;4.97;0.97;;;8.80;99.90;;;;;;4990765;28;20213;-89
2023/04/12 02:02:04;;;;;;;2.37;0.90;;;8.80;99.90;;;;;;4979085;28;20215;-87
2023/04/12 02:04:38;;;;;;;2.23;0.70;;;8.90;99.90;;;;;;4995855;28;20208;-88
2023/04/12 02:07:12;;;;;;;1.63;0.90;;;8.90;99.90;;;;;;5016886;28;20205;-89
2023/04/12 02:09:44;;;;;;;1.73;0.80;;;8.80;99.90;;;;;;4993831;28;20746;-88
2023/04/12 02:12:15;;;;;;;2.43;0.80;;;8.70;99.90;;;;;;4994605;28;20272;-96
2023/04/12 02:14:50;;;;;;;2.30;0.97;;;8.50;99.90;;;;;;4990509;28;20659;-87
2023/04/12 02:17:23;;;;;;;2.30;0.97;;;8.40;99.90;;;;;;4995499;28;20210;-86
2023/04/12 02:19:58;;;;;;;4.67;0.80;;;8.40;99.90;;;;;;4995832;28;20206;-87
2023/04/12 02:22:29;;;;;;;1.83;0.90;;;8.30;99.90;;;;;;4995151;28;20284;-88
2023/04/12 02:25:01;;;;;;;1.93;0.90;;;8.20;99.90;;;;;;4996573;28;20210;-86
2023/04/12 02:27:32;;;;;;;1.77;0.73;;;8.10;99.90;;;;;;4990476;28;20199;-87
2023/04/12 02:30:07;;;;;;;2.23;0.93;;;8.00;99.90;;;;;;4982493;28;20546;-86
2023/04/12 02:32:43;;;;;;;2.43;1.17;;;7.90;99.90;;;;;;4992457;28;20272;-89
2023/04/12 02:35:17;;;;;;;3.17;1.23;;;7.80;99.90;;;;;;4989553;28;20209;-88
2023/04/12 02:37:50;;;;;;;3.13;1.07;;;7.70;99.90;;;;;;4992628;28;20207;-88
2023/04/12 02:40:22;;;;;;;3.23;1.30;;;7.60;99.90;;;;;;4989419;28;20280;-88
2023/04/12 02:42:53;;;;;;;3.47;1.10;;;7.50;99.90;;;;;;5003256;28;20199;-87
2023/04/12 02:45:27;;;;;;;3.50;1.30;;;7.40;99.90;;;;;;4991886;28;20199;-87
2023/04/12 02:47:58;;;;;;;2.50;1.10;;;7.30;99.90;;;;;;5021913;28;20194;-87
2023/04/12 02:50:31;;;;;;;1.83;0.93;;;7.10;99.90;;;;;;5001384;28;20230;-87
2023/04/12 02:53:03;;;;;;;2.53;0.90;;;7.00;99.90;;;;;;4995772;28;20214;-87
2023/04/12 02:55:35;;;;;;;3.07;1.00;;;6.90;99.90;;;;;;4987626;28;20632;-87
2023/04/12 02:58:07;;;;;;;2.00;0.87;;;6.80;99.90;;;;;;4988417;28;20286;-86
2023/04/12 03:00:41;;;;;;;4.20;1.10;;;6.80;99.90;;;;;;4979565;28;20214;-86
2023/04/12 03:03:12;;;;;;;1.77;1.00;;;6.70;99.90;;;;;;4988928;28;20215;-87
2023/04/12 03:05:46;;;;;;;3.23;0.87;;;6.60;99.90;;;;;;4990078;28;20730;-86
2023/04/12 03:08:17;;;;;;;1.87;1.20;;;6.60;99.90;;;;;;4995133;28;20210;-87
2023/04/12 03:10:49;;;;;;;2.03;1.10;;;6.50;99.90;;;;;;4990310;28;20594;-87
2023/04/12 03:13:21;;;;;;;3.10;1.30;;;6.40;99.90;;;;;;4992139;28;20218;-86
2023/04/12 03:15:59;;;;;;;1.53;0.87;;;6.40;99.90;;;;;;4990058;28;20214;-86
2023/04/12 03:18:31;;;;;;;1.10;0.97;;;6.30;99.90;;;;;;4982778;28;20308;-86
2023/04/12 03:21:04;;;;;;;3.50;1.23;;;6.20;99.90;;;;;;4995685;28;20264;-86
2023/04/12 03:23:35;;;;;;;2.63;1.30;;;6.10;99.90;;;;;;5001559;28;20222;-86
2023/04/12 03:26:09;;;;;;;1.17;1.00;;;6.10;99.90;;;;;;4990454;28;20268;-87
2023/04/12 03:28:40;;;;;;;2.37;1.13;;;6.10;99.90;;;;;;4992671;28;20210;-87
2023/04/12 03:31:14;;;;;;;4.93;1.50;;;6.00;99.90;;;;;;4993715;28;20242;-87
2023/04/12 03:33:49;;;;;;;1.67;1.10;;;5.90;99.90;;;;;;4990551;28;20213;-86
2023/04/12 03:36:21;;;;;;;0.87;0.70;;;5.90;99.90;;;;;;4983060;28;20241;-86
2023/04/12 03:38:53;;;;;;;2.77;1.10;;;5.90;99.90;;;;;;4995853;28;20205;-87
2023/04/12 03:41:27;;;;;;;2.40;1.27;;;5.80;99.90;;;;;;4986789;28;20222;-87
2023/04/12 03:43:58;;;;;;;1.83;1.00;;;5.80;99.90;;;;;;4993668;28;20202;-88
2023/04/12 03:46:32;;;;;;;1.87;0.77;;;5.70;99.90;;;;;;4991009;28;20564;-87
2023/04/12 03:49:04;;;;;;;5.00;1.20;;;5.70;99.90;;;;;;4992119;28;20563;-86
2023/04/12 03:51:35;;;;;;;1.33;0.90;;;5.60;99.90;;;;;;4983843;28;20226;-86
2023/04/12 03:54:07;;;;;;;3.83;1.00;;;5.60;99.90;;;;;;4995937;28;20289;-86
2023/04/12 03:56:39;;;;;;;1.93;1.00;;;5.60;99.90;;;;;;4993445;28;20659;-86
2023/04/12 03:59:13;;;;;;;3.90;1.30;;;5.50;99.90;;;;;;4992886;28;20202;-86
2023/04/12 04:01:48;;;;;;;3.63;1.17;;;5.40;99.90;;;;;;4993520;28;20280;-86
2023/04/12 04:04:19;;;;;;;5.40;1.23;;;5.40;99.90;;;;;;5002677;28;20935;-85
2023/04/12 04:06:51;;;;;;;2.87;1.50;;;5.40;99.90;;;;;;5013880;28;20292;-86
2023/04/12 04:09:23;;;;;;;2.33;1.00;;;5.30;99.90;;;;;;5012930;28;20287;-86
2023/04/12 04:11:55;;;;;;;5.23;1.03;;;5.30;99.90;;;;;;4974617;28;20286;-87
2023/04/12 04:14:27;;;;;;;2.40;0.90;;;5.20;99.90;;;;;;4989058;28;20261;-86
2023/04/12 04:17:01;;;;;;;2.80;1.30;;;5.20;99.90;;;;;;4997229;28;20260;-86
2023/04/12 04:19:33;;;;;;;2.40;1.30;;;5.20;99.90;;;;;;4974626;28;20270;-86
2023/04/12 04:22:04;;;;;;;2.30;1.10;;;5.20;99.90;;;;;;4994618;28;20261;-86
2023/04/12 04:24:37;;;;;;;1.87;1.30;;;5.20;99.90;;;;;;4994444;28;20217;-85
2023/04/12 04:27:09;;;;;;;3.90;0.93;;;5.20;99.90;;;;;;4994335;28;20686;-86
2023/04/12 04:29:44;;;;;;;2.13;1.70;;;5.10;99.90;;;;;;4993285;28;20667;-86
2023/04/12 04:32:18;;;;;;;4.57;1.33;;;5.10;99.90;;;;;;4994776;28;20241;-86
2023/04/12 04:34:51;;;;;;;1.80;1.20;;;5.10;99.90;;;;;;4995991;28;20316;-86
2023/04/12 04:37:23;;;;;;;4.83;1.17;;;5.00;99.90;;;;;;5001455;28;20224;-87
2023/04/12 04:39:55;;;;;;;3.73;1.27;;;5.00;99.90;;;;;;5000050;28;20214;-86
2023/04/12 04:42:28;;;;;;;4.60;1.30;;;5.00;99.90;;;;;;4999071;28;20210;-86
2023/04/12 04:45:11;;;;;;;2.13;1.10;;;5.00;99.90;;;;;;4979226;28;20211;-85
2023/04/12 04:47:45;;;;;;;2.73;1.10;;;4.90;99.90;;;;;;4990248;28;20205;-86
2023/04/12 04:50:17;;;;;;;3.43;1.20;;;4.80;99.90;;;;;;4979720;28;20739;-86
2023/04/12 04:52:49;;;;;;;3.33;1.37;;;4.80;99.90;;;;;;4992491;28;20233;-86
2023/04/12 04:55:23;;;;;;;5.43;1.50;;;4.70;99.90;;;;;;5015814;28;20210;-87
2023/04/12 04:57:56;;;;;;;3.30;1.27;;;4.70;99.90;;;;;;5014964;28;20214;-87
2023/04/12 05:00:28;;;;;;;1.13;1.00;;;4.70;99.90;;;;;;4975172;28;20211;-86
2023/04/12 05:03:01;;;;;;;2.47;1.40;;;4.70;99.90;;;;;;4990642;28;20261;-84
2023/04/12 05:05:33;;;;;;;3.07;1.40;;;4.70;99.90;;;;;;4993924;28;20211;-86
2023/04/12 05:08:04;;;;;;;2.47;1.40;;;4.70;99.90;;;;;;4982949;28;20230;-87
2023/04/12 05:10:35;;;;;;;4.50;1.50;;;4.70;99.90;;;;;;4990821;28;20730;-86
2023/04/12 05:13:08;;;;;;;2.27;1.50;;;4.60;99.90;;;;;;4996134;28;20234;-86
2023/04/12 05:15:43;;;;;;;3.17;1.50;;;4.60;99.90;;;;;;4992903;28;20211;-87
2023/04/12 05:18:17;;;;;;;2.53;1.30;;;4.60;99.90;;;;;;4973786;28;20261;-87
2023/04/12 05:20:48;;;;;;;3.40;1.30;;;4.50;99.90;;;;;;4995059;28;20669;-86
2023/04/12 05:23:21;;;;;;;3.63;1.50;;;4.50;99.90;;;;;;5002983;28;20214;-85
2023/04/12 05:25:53;;;;;;;3.40;1.27;;;4.50;99.90;;;;;;4997717;28;20206;-86
2023/04/12 05:28:25;;;;;;;3.23;1.60;;;4.50;99.90;;;;;;4995948;28;20206;-87
2023/04/12 05:30:57;;;;;;;3.33;1.60;;;4.40;99.90;;;;;;4997989;28;20214;-87
2023/04/12 05:33:30;;;;;;;1.70;1.50;;;4.40;99.90;;;;;;4996532;28;20238;-86
2023/04/12 05:36:02;;;;;;;4.77;1.90;;;4.40;99.90;;;;;;4982192;28;20926;-86
2023/04/12 05:38:34;;;;;;;4.40;1.50;;;4.40;99.90;;;;;;4977907;28;20221;-86
2023/04/12 05:41:06;;;;;;;3.63;1.47;;;4.40;99.90;;;;;;5005186;28;20214;-86
2023/04/12 05:43:38;;;;;;;1.67;1.07;;;4.40;99.90;;;;;;5003508;28;20628;-86
2023/04/12 05:46:10;;;;;;;3.43;1.30;;;4.40;99.90;;;;;;4988589;28;20603;-87
2023/04/12 05:48:45;;;;;;;2.10;1.20;;;4.30;99.90;;;;;;4976924;28;20210;-85
2023/04/12 05:51:17;;;;;;;1.87;1.33;;;4.30;99.90;;;;;;4987787;28;20263;-86
2023/04/12 05:54:02;;;;;;;3.50;1.50;;;4.30;99.90;;;;;;4987195;28;20596;-85
2023/04/12 05:56:35;;;;;;;4.10;1.53;;;4.20;99.90;;;;;;4992388;28;20274;-85
2023/04/12 05:59:07;;;;;;;4.20;1.60;;;4.20;99.90;;;;;;4986316;28;20650;-86
2023/04/12 06:01:41;;;;;;;4.30;1.40;;;4.20;99.90;;;;;;4983824;28;20215;-85
2023/04/12 06:04:15;;;;;;;2.67;1.60;;;4.20;99.90;;;;;;4983084;28;20211;-86
2023/04/12 06:06:47;;;;;;;2.70;1.43;;;4.20;99.90;;;;;;4982314;28;20284;-86
2023/04/12 06:09:21;;;;;;;5.23;1.63;;;4.20;99.90;;;;;;4977031;28;20269;-86
2023/04/12 06:11:53;;;;;;;5.97;1.27;;;4.20;99.90;;;;;;4996006;28;20744;-86
2023/04/12 06:14:25;;;;;;;2.87;1.50;;;4.20;99.90;;;;;;4991764;28;20202;-86
2023/04/12 06:16:56;;;;;;;1.93;1.23;;;4.20;99.90;;;;;;4994646;28;20206;-85
2023/04/12 06:19:33;;;;;;;4.70;1.90;;;4.10;99.90;;;;;;4991962;28;20281;-85
2023/04/12 06:22:06;;;;;;;4.30;1.10;;;4.10;99.90;;;;;;4992421;28;20245;-86
2023/04/12 06:24:38;;;;;;;7.00;1.40;;;4.00;99.90;;;;;;4988302;28;20247;-85
2023/04/12 06:27:10;;;;;;;3.70;1.80;;;4.00;99.90;;;;;;5017806;28;20213;-86
2023/04/12 06:29:42;;;;;;;2.87;1.50;;;4.00;99.90;;;;;;4997692;28;20189;-87
2023/04/12 06:32:14;;;;;;;3.67;1.27;;;3.90;99.90;;;;;;5012506;28;20221;-86
2023/04/12 06:34:48;;;;;;;4.17;1.67;;;3.80;99.90;;;;;;5027593;28;20224;-85
2023/04/12 06:37:20;;;;;;;1.30;1.20;;;3.80;99.90;;;;;;5028363;28;20233;-86
2023/04/12 06:39:53;;;;;;;2.00;1.30;;;3.80;99.90;;;;;;5008396;28;20234;-85
2023/04/12 06:42:25;;;;;;;2.40;1.20;;;3.80;99.90;;;;;;5004541;28;20206;-86
2023/04/12 06:44:57;;;;;;;3.00;1.37;;;3.70;99.90;;;;;;5003316;28;20210;-85
2023/04/12 06:47:29;;;;;;;2.70;1.30;;;3.70;99.90;;;;;;4975433;28;20219;-86
2023/04/12 06:50:06;;;;;;;2.60;1.30;;;3.70;99.90;;;;;;4982627;28;20301;-86
2023/04/12 06:52:41;;;;;;;1.50;1.20;;;3.70;99.90;;;;;;4994857;28;20281;-86
2023/04/12 06:55:13;;;;;;;2.83;1.50;;;3.60;99.90;;;;;;4979517;28;20221;-86
2023/04/12 06:57:45;;;;;;;3.03;1.20;;;3.60;99.90;;;;;;4988804;28;20214;-86
2023/04/12 07:00:17;;;;;;;4.43;1.40;;;3.60;99.90;;;;;;4986597;28;20235;-86
2023/04/12 07:02:48;;;;;;;3.50;1.30;;;3.60;99.90;;;;;;4984467;28;20214;-86
2023/04/12 07:05:22;;;;;;;2.50;1.47;;;3.60;99.90;;;;;;4990349;28;20210;-85
2023/04/12 07:07:54;;;;;;;2.73;1.20;;;3.50;99.90;;;;;;4995089;28;20198;-85
2023/04/12 07:10:25;;;;;;;6.17;1.60;;;3.50;99.90;;;;;;4992310;28;20582;-85
2023/04/12 07:12:58;;;;;;;3.43;1.60;;;3.50;99.90;;;;;;4981645;28;20695;-85
2023/04/12 07:15:29;;;;;;;2.97;1.20;;;3.50;99.90;;;;;;4991441;28;20245;-85
2023/04/12 07:18:00;;;;;;;2.60;1.30;;;3.50;99.90;;;;;;4993887;28;20209;-85
2023/04/12 07:20:35;;;;;;;4.63;1.53;;;3.60;99.90;;;;;;4993848;28;20288;-85
2023/04/12 07:23:06;;;;;;;3.60;1.50;;;3.50;99.90;;;;;;4988765;28;20210;-86
2023/04/12 07:25:40;;;;;;;6.97;1.83;;;3.60;99.90;;;;;;4988731;28;20206;-85
2023/04/12 07:28:11;;;;;;;4.50;1.70;;;3.50;99.90;;;;;;5002954;28;20206;-85
2023/04/12 07:30:44;;;;;;;2.90;1.50;;;3.60;99.90;;;;;;4994575;28;20257;-86
2023/04/12 07:33:15;;;;;;;2.90;1.30;;;3.60;99.90;;;;;;4994234;28;20232;-86
2023/04/12 07:35:51;;;;;;;2.27;1.30;;;3.60;99.90;;;;;;4994999;28;20257;-85
2023/04/12 07:38:23;;;;;;;3.07;1.40;;;3.60;99.90;;;;;;4994097;28;20260;-86
2023/04/12 07:40:56;;;;;;;4.53;1.20;;;3.70;99.90;;;;;;4993562;28;20265;-86
2023/04/12 07:43:28;;;;;;;3.47;1.20;;;3.60;99.90;;;;;;4993052;28;20309;-86
2023/04/12 07:46:03;;;;;;;2.90;1.30;;;3.50;99.90;;;;;;4994559;28;20209;-86
2023/04/12 07:48:34;;;;;;;2.60;1.23;;;3.60;99.90;;;;;;4998057;28;20236;-86
2023/04/12 07:51:09;;;;;;;4.97;1.33;;;3.60;99.90;;;;;;5013080;28;20218;-87
2023/04/12 07:53:41;;;;;;;5.97;1.40;;;3.50;99.90;;;;;;5013758;28;20237;-86
2023/04/12 07:56:13;;;;;;;3.20;1.40;;;3.50;99.90;;;;;;5013567;28;20275;-86
2023/04/12 07:58:45;;;;;;;1.60;1.40;;;3.50;99.90;;;;;;4994623;28;20207;-86
2023/04/12 08:01:17;;;;;;;3.57;1.63;;;3.50;99.90;;;;;;4984352;28;20216;-86
2023/04/12 08:03:49;;;;;;;2.87;1.67;;;3.60;99.90;;;;;;4994082;28;20210;-85
2023/04/12 08:06:25;;;;;;;3.40;1.37;;;3.60;99.90;;;;;;5000077;28;20221;-86
2023/04/12 08:09:00;;;;;;;4.33;1.40;;;3.50;99.90;;;;;;5006828;28;20213;-85
2023/04/12 08:11:34;;;;;;;2.17;1.17;;;3.60;99.90;;;;;;4981419;28;20203;-87
2023/04/12 08:14:05;;;;;;;3.63;1.50;;;3.60;99.90;;;;;;4994693;28;20308;-86
2023/04/12 08:16:37;;;;;;;3.80;1.63;;;3.50;99.90;;;;;;4994970;28;20210;-86
2023/04/12 08:19:09;;;;;;;1.47;1.07;;;3.50;99.90;;;;;;4993929;28;20660;-86
2023/04/12 08:21:42;;;;;;;4.30;1.37;;;3.50;99.90;;;;;;4994484;28;20261;-86
2023/04/12 08:24:14;;;;;;;3.27;1.37;;;3.40;99.90;;;;;;4994672;28;20297;-87
2023/04/12 08:26:47;;;;;;;1.67;1.40;;;3.50;99.90;;;;;;4999388;28;20635;-85
2023/04/12 08:29:19;;;;;;;3.27;1.33;;;3.50;99.90;;;;;;5004361;28;20252;-86
2023/04/12 08:31:51;;;;;;;3.27;1.23;;;3.50;99.90;;;;;;4993556;28;20569;-87
2023/04/12 08:34:24;;;;;;;2.07;1.10;;;3.40;99.90;;;;;;4995238;28;20233;-86
2023/04/12 08:36:59;;;;;;;3.30;1.60;;;3.40;99.90;;;;;;4981958;28;20211;-85
2023/04/12 08:39:32;;;;;;;2.93;1.67;;;3.30;99.90;;;;;;4993597;28;20655;-86
2023/04/12 08:42:05;;;;;;;4.47;1.50;;;3.30;99.90;;;;;;4994343;28;20218;-86
2023/04/12 08:44:38;;;;;;;2.50;1.50;;;3.30;99.90;;;;;;4994388;28;20218;-85
2023/04/12 08:47:13;;;;;;;4.73;1.60;;;3.30;99.90;;;;;;4973873;28;20203;-86
2023/04/12 08:49:45;;;;;;;4.13;1.33;;;3.30;99.90;;;;;;4973766;28;20733;-85
2023/04/12 08:52:19;;;;;;;1.50;1.10;;;3.40;99.90;;;;;;4991413;28;20210;-85
2023/04/12 08:54:51;;;;;;;3.57;1.67;;;3.40;99.90;;;;;;4977586;28;20326;-86
2023/04/12 08:57:23;;;;;;;5.37;1.43;;;3.40;99.90;;;;;;4976147;28;20206;-86
2023/04/12 08:59:55;;;;;;;2.27;1.40;;;3.40;99.90;;;;;;4978467;28;20199;-87
2023/04/12 09:02:27;;;;;;;2.73;1.43;;;3.40;99.90;;;;;;4997861;28;20206;-85
2023/04/12 09:05:01;;;;;;;4.93;1.57;;;3.40;99.90;;;;;;4997586;28;20209;-86
2023/04/12 09:07:35;;;;;;;3.60;2.00;;;3.30;99.90;;;;;;4997177;28;20210;-85
2023/04/12 09:10:08;;;;;;;3.33;1.50;;;3.30;99.90;;;;;;4997287;28;20624;-85
2023/04/12 09:12:48;;;;;;;4.60;1.80;;;3.40;99.90;;;;;;4981978;28;20207;-86
2023/04/12 09:15:22;;;;;;;2.57;1.40;;;3.40;99.90;;;;;;4977918;28;20723;-86
2023/04/12 09:18:05;;;;;;;2.60;1.50;;;3.40;99.90;;;;;;4976752;28;20215;-85
2023/04/12 09:20:38;;;;;;;4.43;1.57;;;3.50;99.90;;;;;;4997745;28;20210;-85
2023/04/12 09:23:23;;;;;;;3.80;1.50;;;3.40;99.90;;;;;;4997435;28;20243;-87
2023/04/12 09:25:54;;;;;;;5.87;2.03;;;3.40;99.90;;;;;;4997545;28;20217;-86
2023/04/12 09:28:31;;;;;;;2.23;1.60;;;3.40;99.90;;;;;;4996285;28;20240;-86
2023/04/12 09:31:03;;;;;;;1.77;1.30;;;3.40;99.90;;;;;;5016902;28;20219;-86
2023/04/12 09:33:36;;;;;;;1.93;1.50;;;3.50;99.90;;;;;;5016842;28;20305;-87
2023/04/12 09:36:13;;;;;;;2.43;1.50;;;3.40;99.90;;;;;;5015755;28;20210;-87
2023/04/12 09:39:04;;;;;;;2.37;1.17;;;3.50;99.90;;;;;;4977216;28;20226;-87
2023/04/12 09:41:35;;;;;;;4.73;1.90;;;3.50;99.90;;;;;;4994645;28;20210;-86
2023/04/12 09:44:07;;;;;;;2.47;1.37;;;3.50;99.90;;;;;;4997273;28;20214;-86
2023/04/12 09:46:51;;;;;;;2.93;1.57;;;3.50;99.90;;;;;;4992169;28;20289;-85
2023/04/12 09:49:39;;;;;;;6.13;1.60;;;3.50;99.90;;;;;;4977819;28;20210;-86
2023/04/12 09:52:11;;;;;;;2.73;1.57;;;3.40;99.90;;;;;;4980070;28;20211;-87
2023/04/12 09:54:47;;;;;;;1.20;1.03;;;3.40;99.90;;;;;;4987618;28;20442;-86
2023/04/12 09:57:23;;;;;;;3.57;1.47;;;3.40;99.90;;;;;;4992885;28;20278;-86
2023/04/12 09:59:58;;;;;;;2.73;1.50;;;3.40;99.90;;;;;;4988743;28;20225;-87
2023/04/12 10:02:30;;;;;;;2.07;1.40;;;3.50;99.90;;;;;;4980052;28;20229;-87
2023/04/12 10:05:02;;;;;;;2.80;1.20;;;3.40;99.90;;;;;;4982735;28;20661;-87
2023/04/12 10:07:36;;;;;;;6.20;1.50;;;3.30;99.90;;;;;;4994002;28;20253;-87
2023/04/12 10:10:12;;;;;;;2.43;1.60;;;3.40;99.90;;;;;;4996411;28;20198;-85
2023/04/12 10:12:45;;;;;;;3.00;1.23;;;3.40;99.90;;;;;;4983847;28;20222;-86
2023/04/12 10:15:20;;;;;;;2.50;1.30;;;3.40;99.90;;;;;;4977961;28;20238;-85
2023/04/12 10:17:53;;;;;;;1.97;1.30;;;3.40;99.90;;;;;;4982101;28;20219;-86
2023/04/12 10:20:25;;;;;;;2.80;1.30;;;3.40;99.90;;;;;;5029162;28;20210;-86
2023/04/12 10:22:59;;;;;;;2.90;1.40;;;3.40;99.90;;;;;;4981961;28;20233;-89
2023/04/12 10:25:35;;;;;;;1.97;1.00;;;3.20;99.90;;;;;;4977032;28;20238;-86
2023/04/12 10:28:17;;;;;;;2.33;1.20;;;3.30;99.90;;;;;;4974722;28;20217;-86
2023/04/12 10:30:51;;;;;;;2.27;1.30;;;3.30;99.90;;;;;;4977421;28;20215;-87
2023/04/12 10:33:27;;;;;;;3.03;1.33;;;3.30;99.90;;;;;;4977014;28;20212;-86
2023/04/12 10:36:02;;;;;;;2.43;1.10;;;3.30;99.90;;;;;;4992898;28;20260;-86
2023/04/12 10:38:47;;;;;;;2.33;1.33;;;3.30;99.90;;;;;;5014690;28;20284;-87
2023/04/12 10:41:21;;;;;;;3.47;1.20;;;3.30;99.90;;;;;;4976937;28;20203;-86
2023/04/12 10:43:53;;;;;;;1.50;1.10;;;3.30;99.90;;;;;;4976895;28;20210;-86
2023/04/12 10:46:52;;;;;;;4.00;1.20;;;3.30;99.90;;;;;;4976739;28;20656;-85
2023/04/12 10:49:24;;;;;;;1.20;1.10;;;3.40;99.90;;;;;;4975298;28;20218;-87
2023/04/12 10:52:18;;;;;;;2.23;1.20;;;3.30;99.90;;;;;;4976706;28;20207;-86
2023/04/12 10:54:49;;;;;;;2.17;1.10;;;3.30;99.90;;;;;;4976076;28;20230;-87
2023/04/12 10:57:48;;;;;;;3.20;0.97;;;3.30;99.90;;;;;;4977827;28;20227;-86
2023/04/12 11:00:20;;;;;;;5.67;1.50;;;3.30;99.90;;;;;;4976092;28;20214;-87
2023/04/12 11:03:10;;;;;;;2.50;1.40;;;3.30;99.90;;;;;;4991761;28;20210;-86
2023/04/12 11:06:03;;;;;;;3.53;1.07;;;3.30;99.90;;;;;;4995620;28;20206;-86
2023/04/12 11:08:57;;;;;;;2.30;1.10;;;3.20;99.90;;;;;;4980491;28;20217;-85
2023/04/12 11:11:35;;;;;;;1.67;1.00;;;3.20;99.90;;;;;;4993751;28;20247;-85
2023/04/12 11:14:11;;;;;;;2.83;1.20;;;3.20;99.90;;;;;;4983920;28;20950;-86
2023/04/12 11:17:19;;;;;;;1.43;1.10;;;3.10;99.90;;;;;;4975820;28;20234;-87
2023/04/12 11:19:54;;;;;;;3.57;1.10;;;3.30;99.90;;;;;;5008954;28;20240;-87
2023/04/12 11:22:28;;;;;;;2.23;1.10;;;3.20;99.90;;;;;;5014477;28;20216;-86
2023/04/12 11:25:00;;;;;;;6.00;1.20;;;3.20;99.90;;;;;;5014591;28;20248;-85
2023/04/12 11:27:33;;;;;;;3.63;1.40;;;3.10;99.90;;;;;;4984648;28;20210;-86
2023/04/12 11:30:07;;;;;;;3.53;1.30;;;3.00;99.90;;;;;;4977904;28;20277;-86
2023/04/12 11:32:40;;;;;;;3.20;1.20;;;3.00;99.90;;;;;;4976098;28;20210;-85
2023/04/12 11:35:13;;;;;;;3.83;1.20;;;3.00;99.90;;;;;;4974471;28;20231;-85
2023/04/12 11:37:45;;;;;;;3.63;1.50;;;2.90;99.90;;;;;;4989594;28;20247;-85
2023/04/12 11:40:16;;;;;;;2.47;1.07;;;2.90;99.90;;;;;;4973877;28;20294;-85
2023/04/12 11:42:48;;;;;;;3.00;1.27;;;2.90;99.90;;;;;;4975494;28;20262;-86
2023/04/12 11:45:23;;;;;;;3.07;1.50;;;2.90;99.90;;;;;;4975703;28;20222;-86
2023/04/12 11:47:56;;;;;;;2.23;1.10;;;2.90;99.90;;;;;;4975337;28;20210;-86
2023/04/12 11:50:32;;;;;;;4.70;1.40;;;2.90;99.90;;;;;;4976778;28;20207;-87
2023/04/12 11:53:13;;;;;;;2.23;1.40;;;2.90;99.90;;;;;;4975373;28;20202;-87
2023/04/12 11:55:50;;;;;;;3.10;1.30;;;2.70;99.90;;;;;;4975013;28;20239;-85
2023/04/12 11:58:25;;;;;;;3.37;1.20;;;2.60;99.90;;;;;;4978879;28;20655;-85
2023/04/12 12:00:59;;;;;;;2.07;1.10;;;2.70;99.90;;;;;;4980602;28;20305;-85
2023/04/12 12:03:30;;;;;;;2.60;1.43;;;2.70;99.90;;;;;;4996011;28;20215;-86
2023/04/12 12:06:02;;;;;;;6.30;1.70;;;2.70;99.90;;;;;;5002600;28;20198;-85
2023/04/12 12:08:33;;;;;;;2.60;1.50;;;2.80;99.90;;;;;;4999825;28;20293;-86
2023/04/12 12:11:04;;;;;;;2.20;1.27;;;2.70;99.90;;;;;;4984828;28;20210;-86
2023/04/12 12:13:48;;;;;;;3.47;1.60;;;2.70;99.90;;;;;;4993660;28;20556;-86
2023/04/12 12:16:26;;;;;;;5.00;1.90;;;2.70;99.90;;;;;;4998300;28;20238;-86
2023/04/12 12:18:58;;;;;;;1.43;1.30;;;2.70;99.90;;;;;;4977980;28;20207;-86
2023/04/12 12:21:30;;;;;;;2.93;1.20;;;2.60;99.90;;;;;;5014523;28;20209;-87
2023/04/12 12:24:01;;;;;;;2.50;1.57;;;2.40;99.90;;;;;;4980635;28;20214;-86
2023/04/12 12:26:32;;;;;;;3.53;1.50;;;2.30;99.90;;;;;;4975695;28;20307;-86
2023/04/12 12:29:04;;;;;;;2.83;1.47;;;2.30;99.90;;;;;;4983155;28;20210;-86
2023/04/12 12:31:38;;;;;;;5.87;1.27;;;2.40;99.90;;;;;;4978560;28;20214;-86
2023/04/12 12:34:17;;;;;;;4.40;1.70;;;2.40;99.90;;;;;;4980285;28;20238;-86
2023/04/12 12:36:56;;;;;;;1.27;1.17;;;2.40;99.90;;;;;;4978646;28;20674;-86
2023/04/12 12:39:28;;;;;;;1.73;1.07;;;2.40;99.90;;;;;;5003803;28;20220;-86
2023/04/12 12:42:01;;;;;;;1.40;1.30;;;2.40;99.90;;;;;;5008286;28;20213;-86
2023/04/12 12:44:34;;;;;;;5.00;1.43;;;2.40;99.90;;;;;;5012883;28;20253;-85
2023/04/12 12:47:09;;;;;;;1.90;1.20;;;2.40;99.90;;;;;;5006883;28;20213;-86
2023/04/12 12:49:44;;;;;;;4.77;1.50;;;2.40;99.90;;;;;;5030959;28;20208;-87
2023/04/12 12:52:16;;;;;;;2.37;1.33;;;2.40;99.90;;;;;;5019753;28;20206;-87
2023/04/12 12:54:47;;;;;;;2.47;1.47;;;2.40;99.90;;;;;;5017620;28;20209;-87
2023/04/12 12:57:18;;;;;;;3.10;1.60;;;2.40;99.90;;;;;;5003578;28;20273;-86
2023/04/12 12:59:50;;;;;;;2.37;1.50;;;2.30;99.90;;;;;;4999462;28;20282;-87
2023/04/12 13:02:24;;;;;;;4.50;1.37;;;2.30;99.90;;;;;;4988641;28;20233;-87
2023/04/12 13:04:58;;;;;;;2.07;1.30;;;2.20;99.90;;;;;;4980906;28;20233;-87
2023/04/12 13:07:30;;;;;;;4.33;1.40;;;2.20;99.90;;;;;;4981743;28;20214;-87
2023/04/12 13:10:02;;;;;;;2.87;1.37;;;2.30;99.90;;;;;;4998364;28;20206;-86
2023/04/12 13:12:33;;;;;;;2.53;1.33;;;2.30;99.90;;;;;;4998125;28;20235;-86
2023/04/12 13:15:04;;;;;;;3.03;1.47;;;2.30;99.90;;;;;;4997530;28;20591;-86
2023/04/12 13:17:54;;;;;;;2.80;1.50;;;2.30;99.90;;;;;;4996316;28;20237;-87
2023/04/12 13:20:26;;;;;;;2.30;1.40;;;2.20;99.90;;;;;;4997239;28;20264;-87
2023/04/12 13:22:58;;;;;;;4.33;1.47;;;2.20;99.90;;;;;;4996089;28;20272;-86
2023/04/12 13:25:30;;;;;;;2.00;1.30;;;2.10;99.90;;;;;;4996812;28;20292;-85
2023/04/12 13:28:01;;;;;;;1.67;1.30;;;2.10;99.90;;;;;;4995966;28;20218;-87
2023/04/12 13:30:33;;;;;;;1.40;1.30;;;2.20;99.90;;;;;;4987468;28;20207;-86
2023/04/12 13:33:07;;;;;;;2.10;1.40;;;2.20;99.90;;;;;;4997595;28;20214;-86